Time;durP1;ratioP1;P1;durP2;ratioP2;P2;SDS_P1;SDS_P2;PMS_P1;PMS_P2;Temp;Humidity;BMP_temperature;BMP_pressure;BME280_temperature;BME280_humidity;BME280_pressure;Samples;Min_cycle;Max_cycle;Signal;HPM_P1;HPM_P2
2022/03/16 00:01:25;;;;;;;19.63;10.82;;;8.20;73.50;;;;;;5052472;28;20029;-69
2022/03/16 00:03:50;;;;;;;23.48;11.23;;;8.20;74.00;;;;;;5052060;28;20464;-69
2022/03/16 00:06:16;;;;;;;21.27;9.90;;;8.20;74.30;;;;;;5047901;28;20104;-69
2022/03/16 00:08:41;;;;;;;22.92;10.90;;;8.20;73.70;;;;;;5046268;28;20091;-70
2022/03/16 00:11:07;;;;;;;22.27;10.95;;;8.20;74.30;;;;;;5048706;28;20098;-69
2022/03/16 00:13:33;;;;;;;27.30;11.70;;;8.20;74.20;;;;;;5051028;28;20500;-70
2022/03/16 00:15:58;;;;;;;22.38;10.65;;;8.20;74.20;;;;;;5045425;28;20029;-70
2022/03/16 00:18:24;;;;;;;24.38;11.02;;;8.20;75.00;;;;;;5048679;28;20515;-69
2022/03/16 00:20:49;;;;;;;27.65;10.93;;;8.20;75.20;;;;;;5049867;28;20465;-69
2022/03/16 00:23:16;;;;;;;21.98;11.10;;;8.20;75.10;;;;;;5050790;28;20373;-70
2022/03/16 00:25:41;;;;;;;21.90;10.88;;;8.20;75.40;;;;;;5051735;28;20021;-69
2022/03/16 00:28:07;;;;;;;21.75;10.80;;;8.10;75.80;;;;;;5055775;28;20028;-69
2022/03/16 00:30:33;;;;;;;22.70;11.38;;;8.10;76.00;;;;;;5054365;28;20079;-69
2022/03/16 00:32:59;;;;;;;24.52;11.68;;;8.10;76.70;;;;;;5051173;28;20021;-68
2022/03/16 00:35:24;;;;;;;24.77;12.10;;;8.00;77.70;;;;;;5047659;28;20029;-69
2022/03/16 00:37:50;;;;;;;23.20;11.35;;;8.00;78.20;;;;;;5046000;28;20075;-69
2022/03/16 00:40:15;;;;;;;29.08;11.88;;;8.00;77.70;;;;;;5042952;28;20414;-69
2022/03/16 00:42:41;;;;;;;25.40;11.80;;;8.00;77.70;;;;;;5052470;28;20086;-70
2022/03/16 00:45:07;;;;;;;34.47;14.48;;;7.90;79.10;;;;;;5050565;28;20076;-70
2022/03/16 00:47:33;;;;;;;29.13;13.65;;;7.90;79.10;;;;;;5050501;28;20031;-71
2022/03/16 00:50:00;;;;;;;32.90;13.55;;;7.90;79.70;;;;;;5042044;28;20025;-71
2022/03/16 00:52:25;;;;;;;34.13;15.05;;;7.80;80.50;;;;;;5041944;28;20025;-71
2022/03/16 00:54:51;;;;;;;29.13;13.75;;;7.90;80.80;;;;;;5050745;28;20032;-70
2022/03/16 00:57:16;;;;;;;29.60;13.25;;;7.80;80.80;;;;;;5051935;28;20025;-71
2022/03/16 00:59:42;;;;;;;28.60;13.07;;;7.80;82.20;;;;;;5049930;28;20428;-71
2022/03/16 01:02:08;;;;;;;41.75;14.82;;;7.80;82.40;;;;;;5073535;22;20041;-65
2022/03/16 01:04:34;;;;;;;34.15;13.52;;;7.80;82.60;;;;;;5049886;28;20040;-65
2022/03/16 01:06:59;;;;;;;28.13;12.88;;;7.70;81.80;;;;;;5051403;28;20491;-65
2022/03/16 01:09:25;;;;;;;29.38;13.73;;;7.70;82.30;;;;;;5051162;28;20017;-64
2022/03/16 01:11:50;;;;;;;28.13;13.20;;;7.70;83.10;;;;;;5046614;28;20029;-65
2022/03/16 01:14:17;;;;;;;36.40;14.52;;;7.60;83.60;;;;;;5052762;28;20048;-66
2022/03/16 01:16:43;;;;;;;32.72;14.18;;;7.60;83.40;;;;;;5054378;28;20084;-64
2022/03/16 01:19:09;;;;;;;32.78;13.20;;;7.50;83.70;;;;;;5053904;28;20061;-65
2022/03/16 01:21:34;;;;;;;30.92;13.43;;;7.60;84.40;;;;;;5052419;28;20064;-65
2022/03/16 01:24:00;;;;;;;34.45;14.30;;;7.50;84.90;;;;;;5052331;28;20047;-65
2022/03/16 01:26:26;;;;;;;35.42;14.75;;;7.50;85.90;;;;;;5052006;28;20027;-64
2022/03/16 01:28:52;;;;;;;28.92;14.05;;;7.40;85.30;;;;;;5052633;28;20023;-64
2022/03/16 01:31:21;;;;;;;33.03;15.27;;;7.40;86.40;;;;;;5051805;28;20031;-66
2022/03/16 01:33:47;;;;;;;35.47;16.05;;;7.50;86.50;;;;;;5056255;28;20397;-65
2022/03/16 01:36:12;;;;;;;30.88;13.63;;;7.40;86.70;;;;;;5055715;28;20033;-66
2022/03/16 01:38:38;;;;;;;32.22;14.25;;;7.40;85.90;;;;;;5052716;28;20028;-64
2022/03/16 01:41:04;;;;;;;29.55;13.93;;;7.30;86.10;;;;;;5054738;28;20033;-64
2022/03/16 01:43:29;;;;;;;33.10;14.20;;;7.40;86.40;;;;;;5064095;28;20045;-63
2022/03/16 01:45:55;;;;;;;34.58;15.93;;;7.30;86.60;;;;;;5059198;28;20045;-64
2022/03/16 01:48:21;;;;;;;33.40;14.30;;;7.40;86.60;;;;;;5057172;28;20558;-64
2022/03/16 01:50:48;;;;;;;33.28;12.85;;;7.30;86.80;;;;;;5056567;28;20039;-65
2022/03/16 01:53:14;;;;;;;25.05;12.93;;;7.20;87.40;;;;;;5058631;28;20200;-64
2022/03/16 01:55:40;;;;;;;31.88;15.00;;;7.20;87.40;;;;;;5056157;28;20489;-63
2022/03/16 01:58:07;;;;;;;29.85;13.43;;;7.20;88.20;;;;;;5054983;28;20056;-65
2022/03/16 02:00:32;;;;;;;31.77;13.23;;;7.20;87.70;;;;;;5063639;28;20032;-64
2022/03/16 02:02:58;;;;;;;31.75;13.30;;;7.20;88.00;;;;;;5067723;28;20059;-64
2022/03/16 02:05:24;;;;;;;34.67;14.10;;;7.10;88.20;;;;;;5056680;28;20033;-63
2022/03/16 02:07:50;;;;;;;31.60;13.50;;;7.20;89.20;;;;;;5056139;28;20037;-64
2022/03/16 02:10:17;;;;;;;30.45;13.55;;;7.10;89.20;;;;;;5055329;28;20021;-64
2022/03/16 02:12:51;;;;;;;34.40;13.05;;;7.20;88.70;;;;;;5052733;28;20025;-64
2022/03/16 02:15:17;;;;;;;34.08;13.48;;;7.10;88.80;;;;;;5057904;28;20507;-63
2022/03/16 02:17:43;;;;;;;29.30;13.25;;;7.10;89.30;;;;;;5058814;28;20477;-65
2022/03/16 02:20:10;;;;;;;31.92;14.18;;;7.00;89.30;;;;;;5056567;28;20086;-65
2022/03/16 02:22:41;;;;;;;28.73;13.90;;;6.90;89.30;;;;;;5058463;28;20029;-64
2022/03/16 02:25:09;;;;;;;33.70;14.07;;;6.80;89.30;;;;;;5050487;28;20053;-64
2022/03/16 02:27:38;;;;;;;32.15;13.70;;;6.70;89.80;;;;;;5056390;28;20036;-65
2022/03/16 02:30:04;;;;;;;27.50;13.00;;;6.70;90.00;;;;;;5055809;28;20435;-64
2022/03/16 02:32:29;;;;;;;36.28;13.55;;;6.70;90.10;;;;;;5055264;28;20021;-65
2022/03/16 02:34:55;;;;;;;29.83;14.10;;;6.90;90.10;;;;;;5055680;28;20025;-64
2022/03/16 02:37:21;;;;;;;32.58;13.68;;;6.90;90.10;;;;;;5055407;28;20039;-64
2022/03/16 02:39:47;;;;;;;33.25;14.13;;;6.80;89.70;;;;;;5056510;28;20116;-63
2022/03/16 02:42:13;;;;;;;32.85;14.55;;;6.70;89.90;;;;;;5051378;28;20196;-64
2022/03/16 02:44:38;;;;;;;29.70;13.60;;;6.60;90.40;;;;;;5054885;28;20150;-65
2022/03/16 02:47:04;;;;;;;32.08;13.75;;;6.60;90.10;;;;;;5054892;28;20025;-66
2022/03/16 02:49:31;;;;;;;32.63;14.35;;;6.60;90.50;;;;;;5057417;28;20025;-65
2022/03/16 02:51:57;;;;;;;32.33;14.73;;;6.60;90.70;;;;;;5052899;28;20512;-65
2022/03/16 02:54:23;;;;;;;38.30;14.57;;;6.60;90.40;;;;;;5053919;28;20037;-64
2022/03/16 02:56:48;;;;;;;35.35;14.57;;;6.50;90.50;;;;;;5054790;28;20567;-66
2022/03/16 02:59:15;;;;;;;34.80;14.18;;;6.40;90.60;;;;;;5054165;28;20079;-66
2022/03/16 03:01:40;;;;;;;37.55;14.85;;;6.40;90.70;;;;;;5056705;28;20040;-65
2022/03/16 03:04:06;;;;;;;30.45;13.98;;;6.40;90.60;;;;;;5048742;28;20048;-65
2022/03/16 03:06:32;;;;;;;36.35;14.80;;;6.30;90.90;;;;;;5054533;28;20098;-66
2022/03/16 03:08:57;;;;;;;33.20;15.82;;;6.30;90.90;;;;;;5064580;28;20040;-65
2022/03/16 03:11:23;;;;;;;31.65;13.63;;;6.20;91.10;;;;;;5071087;28;20548;-63
2022/03/16 03:13:48;;;;;;;32.08;14.48;;;6.30;91.40;;;;;;5052884;28;20029;-65
2022/03/16 03:16:14;;;;;;;37.25;15.35;;;6.40;91.40;;;;;;5055449;28;20417;-66
2022/03/16 03:18:39;;;;;;;34.50;14.73;;;6.40;91.40;;;;;;5053477;28;20512;-65
2022/03/16 03:21:05;;;;;;;29.55;13.85;;;6.30;91.30;;;;;;5055813;28;20021;-64
2022/03/16 03:23:31;;;;;;;31.52;13.88;;;6.20;91.10;;;;;;5047923;28;20397;-65
2022/03/16 03:25:56;;;;;;;33.63;13.90;;;6.10;91.30;;;;;;5053217;28;20033;-65
2022/03/16 03:28:22;;;;;;;36.38;14.52;;;6.10;91.40;;;;;;5056350;28;20037;-64
2022/03/16 03:30:47;;;;;;;32.92;15.32;;;6.10;91.50;;;;;;5055939;28;20025;-70
2022/03/16 03:33:13;;;;;;;26.77;13.40;;;6.00;91.50;;;;;;5060794;28;20036;-66
2022/03/16 03:35:38;;;;;;;33.60;14.65;;;6.00;91.60;;;;;;5052016;28;20029;-65
2022/03/16 03:38:04;;;;;;;40.53;14.75;;;5.90;91.80;;;;;;5054412;28;20120;-65
2022/03/16 03:40:29;;;;;;;34.15;14.18;;;5.90;91.80;;;;;;5052560;28;20037;-66
2022/03/16 03:42:55;;;;;;;36.13;16.52;;;5.80;92.00;;;;;;5059562;28;20056;-65
2022/03/16 03:45:21;;;;;;;31.70;14.20;;;5.90;92.30;;;;;;5058078;28;20370;-64
2022/03/16 03:47:46;;;;;;;36.92;15.48;;;5.90;92.50;;;;;;5056605;28;20028;-65
2022/03/16 03:50:12;;;;;;;33.63;15.63;;;5.90;92.20;;;;;;5054413;28;20029;-65
2022/03/16 03:52:38;;;;;;;32.33;15.05;;;5.90;92.30;;;;;;5054141;28;20029;-65
2022/03/16 03:55:04;;;;;;;36.22;15.68;;;5.80;92.10;;;;;;5053784;28;20033;-64
2022/03/16 03:57:30;;;;;;;35.63;16.38;;;5.80;92.60;;;;;;5051600;28;20174;-64
2022/03/16 03:59:55;;;;;;;33.65;15.20;;;5.70;92.70;;;;;;5054347;28;20068;-66
2022/03/16 04:02:21;;;;;;;38.63;16.23;;;5.60;92.40;;;;;;5060590;28;20033;-65
2022/03/16 04:04:46;;;;;;;40.78;15.55;;;5.80;92.80;;;;;;5053402;28;20029;-63
2022/03/16 04:07:12;;;;;;;41.13;17.02;;;5.70;92.50;;;;;;5059711;28;20083;-65
2022/03/16 04:09:38;;;;;;;37.40;16.70;;;5.60;92.60;;;;;;5053450;28;20060;-65
2022/03/16 04:12:04;;;;;;;35.95;15.93;;;5.60;92.70;;;;;;5053011;28;20412;-65
2022/03/16 04:14:29;;;;;;;37.38;15.07;;;5.50;92.90;;;;;;5052995;28;20028;-66
2022/03/16 04:16:55;;;;;;;39.42;15.15;;;5.40;92.80;;;;;;5051895;28;20043;-66
2022/03/16 04:19:20;;;;;;;41.40;16.77;;;5.40;93.00;;;;;;5050912;28;20051;-64
2022/03/16 04:21:46;;;;;;;36.15;16.27;;;5.50;93.40;;;;;;5057750;28;20434;-63
2022/03/16 04:24:12;;;;;;;42.65;17.15;;;5.40;92.90;;;;;;5052653;28;20029;-64
2022/03/16 04:26:37;;;;;;;38.67;17.23;;;5.40;92.90;;;;;;5051529;28;20025;-64
2022/03/16 04:29:03;;;;;;;44.08;18.02;;;5.40;92.80;;;;;;5053757;28;20412;-65
2022/03/16 04:31:28;;;;;;;43.83;19.65;;;5.40;93.00;;;;;;5055232;28;20492;-65
2022/03/16 04:33:55;;;;;;;47.92;20.10;;;5.40;93.50;;;;;;5056554;28;20044;-65
2022/03/16 04:36:21;;;;;;;39.53;16.90;;;5.30;93.10;;;;;;5050705;28;20029;-65
2022/03/16 04:38:46;;;;;;;39.47;17.00;;;5.30;93.10;;;;;;5052884;28;20032;-66
2022/03/16 04:41:12;;;;;;;48.20;18.27;;;5.20;93.10;;;;;;5054220;28;20134;-65
2022/03/16 04:43:37;;;;;;;40.53;16.85;;;5.20;93.30;;;;;;5060294;28;20086;-64
2022/03/16 04:46:04;;;;;;;43.22;19.38;;;5.20;93.50;;;;;;5052453;28;20128;-65
2022/03/16 04:48:30;;;;;;;44.55;19.75;;;5.20;93.30;;;;;;5055094;28;20388;-65
2022/03/16 04:50:55;;;;;;;53.97;22.23;;;5.10;93.40;;;;;;5053568;28;20029;-64
2022/03/16 04:53:21;;;;;;;47.15;18.85;;;5.10;93.50;;;;;;5064021;28;20045;-64
2022/03/16 04:55:46;;;;;;;46.85;19.70;;;5.10;93.50;;;;;;5066773;28;20032;-66
2022/03/16 04:58:12;;;;;;;41.50;17.17;;;5.10;93.60;;;;;;5068947;28;20081;-65
2022/03/16 05:00:38;;;;;;;45.55;20.27;;;5.00;93.50;;;;;;5058608;28;20051;-66
2022/03/16 05:03:04;;;;;;;39.97;17.13;;;5.10;93.90;;;;;;5061888;28;20517;-66
2022/03/16 05:05:30;;;;;;;46.38;18.40;;;5.00;93.70;;;;;;5056172;28;20032;-66
2022/03/16 05:07:56;;;;;;;45.55;17.38;;;5.00;93.70;;;;;;5057310;28;20036;-67
2022/03/16 05:10:22;;;;;;;39.63;17.13;;;5.00;94.10;;;;;;5054324;28;20029;-66
2022/03/16 05:12:48;;;;;;;42.95;17.35;;;4.90;93.80;;;;;;5058484;28;20413;-66
2022/03/16 05:15:19;;;;;;;38.75;15.85;;;4.90;93.90;;;;;;5050221;28;20039;-64
2022/03/16 05:17:46;;;;;;;45.00;17.70;;;4.90;93.80;;;;;;5067692;28;20013;-61
2022/03/16 05:20:13;;;;;;;39.72;16.83;;;4.90;93.70;;;;;;5056147;28;20462;-62
2022/03/16 05:22:45;;;;;;;39.20;16.75;;;4.90;93.70;;;;;;5051795;28;20370;-62
2022/03/16 05:25:17;;;;;;;39.15;16.60;;;4.90;93.80;;;;;;5053327;28;20449;-64
2022/03/16 05:27:43;;;;;;;42.47;17.75;;;4.90;93.80;;;;;;5062263;28;20025;-70
2022/03/16 05:30:12;;;;;;;42.28;17.05;;;4.90;94.30;;;;;;5054139;28;20462;-63
2022/03/16 05:32:42;;;;;;;44.55;17.65;;;4.90;93.90;;;;;;5055046;28;20021;-63
2022/03/16 05:35:13;;;;;;;43.15;17.48;;;4.80;93.80;;;;;;5058642;28;20037;-64
2022/03/16 05:37:40;;;;;;;41.60;17.77;;;4.90;93.90;;;;;;5051724;28;20040;-64
2022/03/16 05:40:07;;;;;;;46.30;17.83;;;4.90;94.30;;;;;;5059047;28;20056;-62
2022/03/16 05:42:33;;;;;;;41.70;17.40;;;4.90;93.80;;;;;;5047248;28;20041;-65
2022/03/16 05:44:59;;;;;;;39.10;17.73;;;4.90;93.60;;;;;;5059208;28;20043;-63
2022/03/16 05:47:24;;;;;;;41.40;17.58;;;5.00;93.50;;;;;;5052624;28;20048;-64
2022/03/16 05:49:52;;;;;;;45.92;18.58;;;5.00;93.60;;;;;;5059992;28;20029;-61
2022/03/16 05:52:21;;;;;;;43.90;17.45;;;5.00;93.70;;;;;;5052328;28;20052;-63
2022/03/16 05:54:51;;;;;;;42.70;18.00;;;5.00;93.90;;;;;;5058185;28;20033;-62
2022/03/16 05:57:17;;;;;;;37.05;17.20;;;5.00;93.50;;;;;;5046293;28;20060;-62
2022/03/16 05:59:44;;;;;;;41.05;18.05;;;5.10;93.50;;;;;;5049738;28;20576;-62
2022/03/16 06:02:13;;;;;;;41.35;18.63;;;5.10;93.60;;;;;;5050987;28;20029;-63
2022/03/16 06:04:41;;;;;;;44.22;18.42;;;5.10;93.60;;;;;;5047402;28;20033;-63
2022/03/16 06:07:07;;;;;;;48.40;19.10;;;5.10;93.70;;;;;;5051047;28;20484;-64
2022/03/16 06:09:33;;;;;;;45.63;18.85;;;5.10;93.80;;;;;;5051925;28;20079;-61
2022/03/16 06:12:00;;;;;;;54.38;19.20;;;5.30;93.40;;;;;;5051814;28;20087;-62
2022/03/16 06:14:26;;;;;;;41.33;18.00;;;5.20;93.50;;;;;;5053409;28;20408;-62
2022/03/16 06:16:52;;;;;;;43.95;17.50;;;5.40;93.20;;;;;;5052628;28;20029;-67
2022/03/16 06:19:21;;;;;;;42.90;18.38;;;5.50;92.90;;;;;;5057920;28;20036;-63
2022/03/16 06:21:47;;;;;;;39.63;17.63;;;5.50;92.50;;;;;;5050866;28;20512;-62
2022/03/16 06:24:13;;;;;;;40.17;18.33;;;5.50;92.90;;;;;;5051307;28;20485;-60
2022/03/16 06:26:39;;;;;;;39.63;17.35;;;5.60;92.50;;;;;;5058858;28;20033;-60
2022/03/16 06:29:05;;;;;;;40.70;17.45;;;5.70;92.20;;;;;;5053555;28;20029;-61
2022/03/16 06:31:31;;;;;;;37.03;17.52;;;5.70;92.30;;;;;;5057151;28;20033;-60
2022/03/16 06:33:57;;;;;;;45.55;18.67;;;5.70;92.00;;;;;;5057097;28;20495;-60
2022/03/16 06:36:22;;;;;;;47.10;18.25;;;5.90;91.80;;;;;;5065270;28;20032;-62
2022/03/16 06:38:48;;;;;;;37.90;17.65;;;5.90;91.70;;;;;;5057493;28;20404;-62
2022/03/16 06:41:13;;;;;;;47.40;18.50;;;5.90;91.50;;;;;;5055915;28;20056;-61
2022/03/16 06:43:40;;;;;;;40.88;18.40;;;6.00;91.70;;;;;;5050160;28;20025;-62
2022/03/16 06:46:06;;;;;;;41.53;18.58;;;6.10;91.30;;;;;;5057799;28;20028;-64
2022/03/16 06:48:31;;;;;;;39.85;18.50;;;6.20;91.10;;;;;;5063493;28;20060;-63
2022/03/16 06:50:57;;;;;;;40.80;17.75;;;6.30;90.70;;;;;;5054868;28;20029;-59
2022/03/16 06:53:23;;;;;;;36.95;17.63;;;6.40;90.50;;;;;;5055899;28;20021;-61
2022/03/16 06:55:49;;;;;;;35.13;16.73;;;6.60;90.20;;;;;;5055288;28;20037;-67
2022/03/16 06:58:14;;;;;;;37.47;16.98;;;6.80;90.10;;;;;;5054232;28;20106;-63
2022/03/16 07:00:40;;;;;;;37.78;16.50;;;6.80;89.10;;;;;;5055469;28;20033;-61
2022/03/16 07:03:06;;;;;;;43.78;17.08;;;6.80;90.00;;;;;;5074610;22;20053;-69
2022/03/16 07:05:41;;;;;;;41.47;17.25;;;7.00;89.10;;;;;;5052777;28;20029;-70
2022/03/16 07:08:12;;;;;;;36.38;16.52;;;7.10;88.60;;;;;;5044702;28;20122;-70
2022/03/16 07:10:40;;;;;;;32.45;15.48;;;7.70;85.80;;;;;;5052888;28;20083;-70
2022/03/16 07:13:07;;;;;;;34.00;16.08;;;8.40;82.70;;;;;;5053633;28;20021;-69
2022/03/16 07:15:34;;;;;;;35.15;16.75;;;8.10;80.60;;;;;;5052568;28;20028;-69
2022/03/16 07:18:03;;;;;;;34.80;15.70;;;8.20;82.60;;;;;;5053964;28;20420;-70
2022/03/16 07:20:30;;;;;;;37.58;16.70;;;8.50;81.80;;;;;;5051670;28;20481;-69
2022/03/16 07:23:09;;;;;;;35.17;16.23;;;8.90;80.10;;;;;;5053866;28;20078;-71
2022/03/16 07:25:35;;;;;;;35.88;15.93;;;9.70;77.50;;;;;;5053479;28;20464;-70
2022/03/16 07:28:01;;;;;;;33.42;16.48;;;8.30;80.80;;;;;;5042467;28;20091;-70
2022/03/16 07:30:26;;;;;;;32.45;15.88;;;8.30;83.50;;;;;;5050569;28;20486;-70
2022/03/16 07:32:52;;;;;;;34.25;15.50;;;9.70;78.70;;;;;;5046180;28;20032;-71
2022/03/16 07:35:18;;;;;;;35.30;14.70;;;10.60;71.80;;;;;;5046915;28;20033;-70
2022/03/16 07:37:43;;;;;;;36.10;17.92;;;11.60;70.70;;;;;;5050896;28;20040;-69
2022/03/16 07:40:10;;;;;;;32.78;16.00;;;11.80;65.90;;;;;;5047941;28;20029;-68
2022/03/16 07:42:36;;;;;;;31.95;14.98;;;10.10;64.90;;;;;;5060724;28;20025;-69
2022/03/16 07:45:03;;;;;;;27.60;14.45;;;10.40;67.20;;;;;;5049702;28;20037;-71
2022/03/16 07:47:29;;;;;;;28.15;13.48;;;9.00;69.80;;;;;;5051424;28;20029;-73
2022/03/16 07:49:56;;;;;;;27.30;14.00;;;;;;;;;;5050008;28;20051;-73
2022/03/16 07:52:25;;;;;;;28.42;14.20;;;7.50;79.60;;;;;;5049199;28;20065;-73
2022/03/16 07:54:51;;;;;;;29.42;14.57;;;7.70;79.90;;;;;;5058665;28;20059;-70
2022/03/16 07:57:17;;;;;;;35.30;15.68;;;6.60;84.40;;;;;;5065513;28;20483;-71
2022/03/16 07:59:43;;;;;;;30.02;15.00;;;6.40;85.30;;;;;;5058293;28;20017;-72
2022/03/16 08:02:09;;;;;;;30.85;14.65;;;6.30;86.90;;;;;;5061792;28;20047;-71
2022/03/16 08:04:34;;;;;;;28.00;15.02;;;6.90;85.30;;;;;;5050924;28;20025;-72
2022/03/16 08:07:00;;;;;;;31.45;15.88;;;7.00;85.90;;;;;;5052496;28;20029;-72
2022/03/16 08:09:25;;;;;;;33.45;16.45;;;7.30;82.30;;;;;;5056739;28;20017;-72
2022/03/16 08:11:51;;;;;;;35.63;16.52;;;7.30;83.00;;;;;;5060016;28;20078;-72
2022/03/16 08:14:16;;;;;;;43.33;17.83;;;7.90;82.00;;;;;;5054528;28;20085;-72
2022/03/16 08:16:42;;;;;;;52.03;22.70;;;8.20;78.80;;;;;;5053605;28;20052;-72
2022/03/16 08:19:07;;;;;;;54.35;21.55;;;6.70;85.20;;;;;;5054456;28;20025;-71
2022/03/16 08:21:33;;;;;;;59.45;24.20;;;6.50;87.00;;;;;;5054431;28;20120;-72
2022/03/16 08:23:59;;;;;;;58.95;22.85;;;6.30;88.50;;;;;;5050152;28;20075;-72
2022/03/16 08:26:24;;;;;;;53.55;21.80;;;6.20;89.30;;;;;;5052051;28;20110;-70
2022/03/16 08:28:50;;;;;;;53.00;19.95;;;6.20;89.00;;;;;;5049929;28;20037;-72
2022/03/16 08:31:17;;;;;;;60.05;22.15;;;6.50;88.00;;;;;;5053647;28;20033;-72
2022/03/16 08:33:43;;;;;;;54.10;19.70;;;5.90;90.40;;;;;;5057966;28;20029;-73
2022/03/16 08:36:09;;;;;;;45.95;19.85;;;6.20;90.20;;;;;;5061263;28;20524;-71
2022/03/16 08:38:37;;;;;;;42.72;18.70;;;6.10;90.40;;;;;;5068558;28;20009;-71
2022/03/16 08:41:04;;;;;;;42.05;17.13;;;6.40;89.90;;;;;;5045070;28;20033;-73
2022/03/16 08:43:30;;;;;;;42.83;16.48;;;6.00;90.70;;;;;;5051039;28;20099;-72
2022/03/16 08:45:58;;;;;;;39.10;16.05;;;6.40;90.20;;;;;;5054001;28;20401;-71
2022/03/16 08:48:24;;;;;;;39.35;16.25;;;6.60;89.30;;;;;;5064930;28;20028;-72
2022/03/16 08:50:50;;;;;;;28.98;12.93;;;7.10;87.40;;;;;;5055302;28;20029;-72
2022/03/16 08:53:16;;;;;;;28.83;13.48;;;7.20;85.90;;;;;;5051022;28;20028;-71
2022/03/16 08:55:41;;;;;;;31.67;14.40;;;6.90;86.70;;;;;;5055396;28;20162;-71
2022/03/16 08:58:07;;;;;;;37.17;15.55;;;6.30;88.10;;;;;;5055381;28;20455;-71
2022/03/16 09:00:32;;;;;;;34.90;15.65;;;6.20;91.20;;;;;;5051749;28;20025;-71
2022/03/16 09:02:58;;;;;;;33.67;14.68;;;6.00;90.80;;;;;;5055255;28;20489;-71
2022/03/16 09:05:24;;;;;;;31.98;13.70;;;6.60;90.40;;;;;;5059053;28;20016;-71
2022/03/16 09:07:50;;;;;;;36.60;16.38;;;6.60;90.20;;;;;;5054099;28;20082;-71
2022/03/16 09:10:15;;;;;;;36.35;15.65;;;6.30;90.80;;;;;;5055605;28;20120;-71
2022/03/16 09:12:41;;;;;;;41.70;17.40;;;6.50;90.50;;;;;;5054919;28;20021;-71
2022/03/16 09:15:07;;;;;;;37.42;16.35;;;6.30;90.80;;;;;;5056819;28;20078;-70
2022/03/16 09:17:34;;;;;;;33.85;15.60;;;6.70;90.40;;;;;;5059971;28;20047;-72
2022/03/16 09:20:01;;;;;;;32.25;14.18;;;6.30;91.30;;;;;;5058745;28;20117;-71
2022/03/16 09:22:27;;;;;;;38.00;14.35;;;6.50;90.90;;;;;;5058851;28;20028;-71
2022/03/16 09:24:53;;;;;;;27.02;12.77;;;6.10;91.70;;;;;;5048440;28;20167;-72
2022/03/16 09:27:19;;;;;;;36.13;15.05;;;6.50;91.00;;;;;;5050585;28;20029;-71
2022/03/16 09:29:46;;;;;;;32.33;13.70;;;6.50;91.00;;;;;;5051090;28;20025;-70
2022/03/16 09:32:13;;;;;;;29.52;12.55;;;6.70;90.60;;;;;;5053275;28;20131;-72
2022/03/16 09:34:40;;;;;;;34.03;14.93;;;6.80;90.40;;;;;;5066190;28;20103;-71
2022/03/16 09:37:07;;;;;;;32.03;14.68;;;7.20;89.60;;;;;;5052491;28;20028;-72
2022/03/16 09:39:34;;;;;;;35.95;14.32;;;7.00;89.40;;;;;;5049989;28;20025;-72
2022/03/16 09:42:00;;;;;;;42.95;17.25;;;7.00;90.00;;;;;;5049388;28;20036;-72
2022/03/16 09:44:28;;;;;;;38.60;14.90;;;7.00;90.00;;;;;;5051882;28;20018;-69
2022/03/16 09:46:55;;;;;;;36.42;14.57;;;7.20;89.40;;;;;;5050093;28;20168;-72
2022/03/16 09:49:22;;;;;;;32.88;14.55;;;6.80;90.20;;;;;;5043636;28;20036;-70
2022/03/16 09:51:49;;;;;;;30.70;14.90;;;6.80;90.40;;;;;;5048596;28;20028;-71
2022/03/16 09:54:15;;;;;;;38.08;15.88;;;7.10;89.60;;;;;;5047411;28;20021;-72
2022/03/16 09:56:40;;;;;;;56.10;19.40;;;7.50;88.40;;;;;;5048265;28;20524;-72
2022/03/16 09:59:06;;;;;;;49.55;18.75;;;7.40;87.10;;;;;;5047447;28;20032;-71
2022/03/16 10:01:34;;;;;;;44.78;18.48;;;7.50;87.70;;;;;;5050357;28;20065;-72
2022/03/16 10:04:05;;;;;;;37.03;15.65;;;7.40;88.10;;;;;;5056709;28;20044;-74
2022/03/16 10:06:31;;;;;;;33.55;13.68;;;8.20;85.10;;;;;;5055717;28;20025;-72
2022/03/16 10:14:25;;;;;;;32.17;11.93;;;7.50;86.00;;;;;;5057094;28;20024;-72
2022/03/16 10:19:52;;;;;;;24.77;10.20;;;7.30;87.30;;;;;;5053830;28;20113;-72
2022/03/16 10:22:38;;;;;;;19.10;9.88;;;7.60;86.90;;;;;;5051058;28;20025;-72
2022/03/16 10:25:05;;;;;;;27.83;11.70;;;7.60;86.60;;;;;;5051527;28;20397;-73
2022/03/16 10:27:39;;;;;;;27.88;11.82;;;7.40;85.80;;;;;;5067383;28;20445;-73
2022/03/16 10:30:07;;;;;;;30.55;12.52;;;7.20;89.10;;;;;;5053585;28;20021;-71
2022/03/16 10:32:34;;;;;;;27.48;12.38;;;8.10;86.40;;;;;;5062245;28;20043;-73
2022/03/16 10:35:05;;;;;;;25.23;10.75;;;7.50;87.00;;;;;;5053147;28;20508;-72
2022/03/16 10:37:33;;;;;;;23.75;11.27;;;8.00;85.40;;;;;;5055112;28;20093;-72
2022/03/16 10:39:58;;;;;;;33.10;12.55;;;8.60;83.20;;;;;;5056986;28;20025;-71
2022/03/16 10:48:25;;;;;;;38.70;15.57;;;8.20;83.90;;;;;;5047765;28;20121;-70
2022/03/16 10:50:56;;;;;;;46.17;19.13;;;7.90;83.80;;;;;;5053939;28;20432;-69
2022/03/16 10:53:28;;;;;;;34.78;15.40;;;7.00;88.40;;;;;;5047847;28;20040;-69
2022/03/16 10:55:56;;;;;;;39.78;18.00;;;7.30;88.10;;;;;;5052341;28;20086;-72
2022/03/16 10:58:23;;;;;;;42.53;18.13;;;7.40;87.80;;;;;;5052458;28;20035;-71
2022/03/16 11:00:51;;;;;;;42.75;18.35;;;7.90;85.80;;;;;;5051544;28;20073;-71
2022/03/16 11:03:22;;;;;;;39.78;17.98;;;8.30;83.90;;;;;;5052237;28;20060;-71
2022/03/16 11:05:48;;;;;;;45.55;20.65;;;8.30;84.20;;;;;;5062008;28;20029;-70
2022/03/16 11:08:14;;;;;;;44.97;19.08;;;8.00;82.90;;;;;;5050367;28;20083;-72
2022/03/16 11:10:42;;;;;;;48.60;18.88;;;8.10;85.20;;;;;;5052551;28;20017;-71
2022/03/16 11:15:56;;;;;;;33.38;15.65;;;8.90;81.00;;;;;;5052095;28;20074;-71
2022/03/16 11:18:23;;;;;;;29.63;14.25;;;8.10;82.40;;;;;;5051786;28;20467;-72
2022/03/16 11:20:52;;;;;;;29.33;12.85;;;8.00;84.80;;;;;;5055217;28;20420;-71
2022/03/16 11:26:23;;;;;;;35.88;14.63;;;8.60;81.30;;;;;;5053358;28;20389;-72
2022/03/16 11:29:12;;;;;;;32.28;14.55;;;8.90;82.40;;;;;;5052119;28;20017;-72
2022/03/16 11:31:42;;;;;;;33.92;15.20;;;8.60;81.10;;;;;;5054465;28;20500;-70
2022/03/16 11:34:10;;;;;;;33.47;13.55;;;8.40;82.90;;;;;;5062205;28;20083;-71
2022/03/16 11:36:40;;;;;;;34.95;13.95;;;8.50;81.70;;;;;;5043764;28;20032;-70
2022/03/16 11:39:14;;;;;;;33.45;14.32;;;8.40;82.60;;;;;;5051652;28;20029;-70
2022/03/16 11:41:51;;;;;;;39.00;15.52;;;8.20;82.70;;;;;;5050440;28;20029;-71
2022/03/16 11:44:26;;;;;;;46.97;16.98;;;8.10;84.00;;;;;;5060477;28;20123;-71
2022/03/16 11:46:53;;;;;;;46.38;17.88;;;7.90;85.40;;;;;;5041997;28;20415;-71
2022/03/16 11:49:29;;;;;;;40.42;15.82;;;8.00;84.70;;;;;;5048183;28;20050;-70
2022/03/16 11:52:00;;;;;;;41.42;15.90;;;8.40;85.30;;;;;;5047958;28;20069;-70
2022/03/16 11:54:51;;;;;;;43.13;17.45;;;8.80;82.60;;;;;;5051915;28;20017;-71
2022/03/16 11:57:50;;;;;;;38.42;14.20;;;8.70;81.90;;;;;;5051109;28;20223;-70
2022/03/16 12:00:17;;;;;;;38.05;15.38;;;8.40;83.10;;;;;;5061919;28;20437;-70
2022/03/16 12:02:57;;;;;;;41.30;17.48;;;8.60;82.90;;;;;;5065947;28;20043;-71
2022/03/16 12:05:26;;;;;;;38.92;15.70;;;8.80;82.70;;;;;;5051961;28;20028;-72
2022/03/16 12:08:12;;;;;;;37.03;14.13;;;9.00;81.20;;;;;;5060267;28;20039;-72
2022/03/16 12:10:47;;;;;;;39.30;16.38;;;8.80;81.70;;;;;;5049275;28;20017;-71
2022/03/16 12:13:14;;;;;;;;;;;9.00;81.20;;;;;;5055590;28;20428;-72
2022/03/16 12:15:42;;;;;;;36.47;15.32;;;9.00;80.70;;;;;;5063105;28;19939;-71
2022/03/16 12:18:14;;;;;;;41.05;15.52;;;8.80;81.70;;;;;;5071091;28;20111;-74
2022/03/16 12:20:43;;;;;;;40.30;16.48;;;8.90;81.80;;;;;;5055563;28;20032;-71
2022/03/16 12:23:18;;;;;;;40.92;14.93;;;9.10;81.10;;;;;;5065862;28;20029;-71
2022/03/16 12:25:46;;;;;;;37.05;15.20;;;8.90;82.20;;;;;;5062919;28;20082;-70
2022/03/16 12:31:16;;;;;;;48.20;17.05;;;8.90;81.80;;;;;;5055639;28;20595;-71
2022/03/16 12:33:48;;;;;;;46.25;17.30;;;8.90;82.00;;;;;;5055523;28;20032;-72
2022/03/16 12:36:20;;;;;;;48.53;17.35;;;9.10;81.80;;;;;;5047964;28;20104;-72
2022/03/16 12:38:47;;;;;;;48.22;17.67;;;9.00;81.50;;;;;;5055674;28;20385;-71
2022/03/16 12:44:02;;;;;;;41.13;16.38;;;9.30;80.50;;;;;;5051688;28;20039;-71
2022/03/16 12:46:37;;;;;;;39.10;16.67;;;9.30;80.00;;;;;;5051799;28;20029;-71
2022/03/16 12:49:04;;;;;;;;;;;9.40;79.40;;;;;;5050403;28;20063;-72
2022/03/16 12:52:00;;;;;;;40.38;16.10;;;9.40;79.30;;;;;;5050417;28;19912;-71
2022/03/16 12:54:32;;;;;;;44.67;16.48;;;9.40;79.80;;;;;;5047262;28;20037;-72
2022/03/16 12:57:02;;;;;;;36.70;15.60;;;9.40;79.30;;;;;;5049810;28;20025;-70
2022/03/16 12:59:29;;;;;;;42.80;16.20;;;9.60;79.00;;;;;;5052614;28;20025;-72
2022/03/16 13:02:01;;;;;;;45.97;17.75;;;9.50;78.80;;;;;;5050911;28;20054;-70
2022/03/16 13:04:29;;;;;;;50.80;18.17;;;9.40;79.20;;;;;;5040398;23;20044;-65